createdAt,value
2022-09-30T00:01:04.267Z,72.15
2022-09-30T00:06:08.768Z,72.14
2022-09-30T00:11:17.794Z,72.18
2022-09-30T00:16:21.567Z,72.28
2022-09-30T00:21:24.642Z,72.31
2022-09-30T00:26:26.935Z,72.31
2022-09-30T00:31:32.682Z,72.55
2022-09-30T00:36:38.932Z,72.04
2022-09-30T00:41:41.327Z,72.33
2022-09-30T00:46:45.036Z,72.44
2022-09-30T00:51:54.683Z,72.23
2022-09-30T00:57:00.754Z,72.28
2022-09-30T01:02:02.895Z,72.37
2022-09-30T01:07:08.708Z,72.45
2022-09-30T01:12:18.910Z,72.60
2022-09-30T01:17:51.848Z,72.42
2022-09-30T01:23:15.136Z,72.50
2022-09-30T01:28:38.108Z,72.69
2022-09-30T01:34:12.077Z,72.66
2022-09-30T01:39:42.146Z,72.65
2022-09-30T01:44:55.697Z,72.68
2022-09-30T01:50:09.542Z,72.90
2022-09-30T01:55:27.346Z,73.04
2022-09-30T02:00:35.108Z,72.87
2022-09-30T02:05:43.954Z,72.96
2022-09-30T02:10:53.147Z,72.94
2022-09-30T02:16:00.675Z,72.93
2022-09-30T02:21:04.882Z,72.95
2022-09-30T02:26:10.432Z,72.99
2022-09-30T02:31:15.285Z,72.94
2022-09-30T02:36:32.104Z,73.08
2022-09-30T02:41:47.828Z,73.16
2022-09-30T02:47:10.183Z,73.05
2022-09-30T02:52:24.974Z,73.05
2022-09-30T02:57:44.200Z,73.12
2022-09-30T03:02:46.066Z,73.13
2022-09-30T03:07:47.862Z,73.09
2022-09-30T03:13:28.660Z,73.30
2022-09-30T03:19:09.281Z,73.40
2022-09-30T03:24:32.819Z,73.63
2022-09-30T03:29:42.254Z,73.58
2022-09-30T03:34:58.022Z,73.51
2022-09-30T03:40:11.902Z,73.47
2022-09-30T03:45:30.532Z,73.05
2022-09-30T03:50:34.866Z,73.50
2022-09-30T03:55:49.385Z,73.56
2022-09-30T04:00:54.570Z,73.42
2022-09-30T04:05:56.482Z,73.43
2022-09-30T04:10:58.477Z,73.46
2022-09-30T04:16:00.444Z,73.67
2022-09-30T04:21:12.547Z,73.53
2022-09-30T04:26:15.983Z,73.40
2022-09-30T04:31:19.644Z,73.46
2022-09-30T04:36:21.593Z,73.52
2022-09-30T04:41:23.718Z,73.32
2022-09-30T04:46:25.937Z,73.49
2022-09-30T04:51:27.807Z,73.39
2022-09-30T04:56:29.932Z,73.30
2022-09-30T05:01:31.856Z,73.37
2022-09-30T05:06:34.071Z,73.52
2022-09-30T05:11:38.233Z,73.11
2022-09-30T05:16:40.095Z,73.35
2022-09-30T05:21:44.970Z,73.13
2022-09-30T05:26:46.925Z,73.14
2022-09-30T05:31:48.829Z,73.19
2022-09-30T05:36:50.862Z,73.08
2022-09-30T05:41:52.763Z,73.20
2022-09-30T05:46:54.755Z,73.23
2022-09-30T05:51:56.791Z,73.15
2022-09-30T05:56:58.957Z,73.42
2022-09-30T06:02:01.611Z,73.25
2022-09-30T06:07:08.237Z,73.46
2022-09-30T06:12:12.383Z,73.70
2022-09-30T06:17:14.287Z,73.47
2022-09-30T06:22:18.251Z,73.63
2022-09-30T06:27:20.266Z,73.35
2022-09-30T06:32:22.147Z,73.70
2022-09-30T06:37:25.445Z,73.77
2022-09-30T06:42:27.425Z,73.68
2022-09-30T06:47:29.268Z,73.81
2022-09-30T06:52:31.136Z,73.97
2022-09-30T06:57:33.272Z,74.14
2022-09-30T07:02:36.185Z,74.08
2022-09-30T07:07:38.252Z,74.23
2022-09-30T07:12:41.200Z,74.10
2022-09-30T07:17:44.248Z,74.18
2022-09-30T07:22:46.545Z,74.02
2022-09-30T07:27:49.012Z,74.06
2022-09-30T07:32:50.946Z,74.16
2022-09-30T07:37:52.859Z,74.11
2022-09-30T07:42:54.983Z,74.17
2022-09-30T07:47:59.863Z,74.15
2022-09-30T07:53:01.812Z,74.23
2022-09-30T07:58:06.329Z,74.05
2022-09-30T08:03:08.382Z,74.35
2022-09-30T08:08:11.785Z,74.49
2022-09-30T08:13:14.051Z,74.36
2022-09-30T08:18:16.128Z,74.57
2022-09-30T08:23:17.986Z,74.56
2022-09-30T08:28:20.046Z,74.71
2022-09-30T08:33:21.823Z,74.75
2022-09-30T08:38:23.636Z,74.55
2022-09-30T08:43:46.710Z,74.65
2022-09-30T08:49:03.529Z,74.70
2022-09-30T08:54:10.932Z,74.66
2022-09-30T08:59:26.932Z,74.29
2022-09-30T09:04:29.115Z,74.26
2022-09-30T09:10:00.348Z,74.29
2022-09-30T09:15:26.874Z,74.15
2022-09-30T09:20:41.462Z,73.85
2022-09-30T09:25:46.468Z,73.79
2022-09-30T09:30:53.689Z,73.37
2022-09-30T09:36:13.604Z,73.03
2022-09-30T09:41:44.291Z,72.59
2022-09-30T09:47:05.815Z,72.00
2022-09-30T09:52:13.487Z,72.02
2022-09-30T09:57:25.019Z,71.67
2022-09-30T10:02:30.280Z,71.47
2022-09-30T10:07:34.470Z,71.18
2022-09-30T10:12:36.598Z,71.01
2022-09-30T10:17:38.881Z,70.86
2022-09-30T10:22:41.562Z,70.73
2022-09-30T10:27:57.262Z,70.35
2022-09-30T10:33:02.382Z,70.19
2022-09-30T10:38:04.314Z,70.00
2022-09-30T10:43:06.213Z,69.68
2022-09-30T10:48:18.096Z,69.05
2022-09-30T10:53:27.198Z,69.16
2022-09-30T10:58:51.693Z,68.29
2022-09-30T11:04:05.988Z,68.28
2022-09-30T11:09:33.958Z,68.21
2022-09-30T11:14:42.417Z,68.17
2022-09-30T11:19:44.185Z,67.82
2022-09-30T11:24:50.418Z,67.76
2022-09-30T11:30:16.920Z,67.10
2022-09-30T11:35:37.445Z,67.26
2022-09-30T11:40:51.409Z,66.53
2022-09-30T11:46:02.289Z,66.68
2022-09-30T11:51:19.905Z,66.38
2022-09-30T11:56:59.417Z,66.51
2022-09-30T12:02:04.991Z,66.60
2022-09-30T12:07:15.128Z,66.52
2022-09-30T12:12:19.045Z,66.18
2022-09-30T12:17:34.012Z,65.59
2022-09-30T12:22:41.116Z,65.46
2022-09-30T12:27:49.603Z,65.05
2022-09-30T12:33:12.511Z,64.93
2022-09-30T12:38:17.754Z,65.25
2022-09-30T12:43:55.206Z,64.54
2022-09-30T12:49:06.007Z,64.79
2022-09-30T12:54:16.381Z,64.70
2022-09-30T12:59:30.368Z,64.79
2022-09-30T13:04:42.994Z,64.89
2022-09-30T13:10:27.804Z,64.41
2022-09-30T13:15:32.806Z,64.61
2022-09-30T13:20:56.897Z,64.41
2022-09-30T13:25:58.932Z,64.70
2022-09-30T13:31:32.376Z,64.15
2022-09-30T13:36:52.490Z,64.28
2022-09-30T13:42:07.247Z,64.61
2022-09-30T13:47:26.762Z,64.74
2022-09-30T13:52:33.213Z,65.10
2022-09-30T13:57:45.510Z,64.68
2022-09-30T14:03:11.152Z,64.53
2022-09-30T14:08:16.066Z,64.68
2022-09-30T14:14:01.172Z,64.46
2022-09-30T14:19:30.345Z,64.89
2022-09-30T14:24:38.027Z,64.89
2022-09-30T14:29:51.586Z,64.93
2022-09-30T14:34:53.755Z,65.22
2022-09-30T14:39:56.377Z,65.54
2022-09-30T14:45:06.165Z,65.27
2022-09-30T14:50:18.130Z,65.51
2022-09-30T14:55:27.034Z,65.77
2022-09-30T15:00:31.541Z,65.62
2022-09-30T15:05:36.358Z,65.73
2022-09-30T15:10:38.394Z,65.91
2022-09-30T15:15:40.788Z,66.25
2022-09-30T15:20:43.562Z,65.87
2022-09-30T15:25:45.741Z,65.76
2022-09-30T15:30:47.672Z,65.88
2022-09-30T15:35:50.451Z,65.79
2022-09-30T15:40:59.733Z,65.73
2022-09-30T15:46:19.727Z,65.76
2022-09-30T15:51:25.773Z,65.53
2022-09-30T15:56:28.290Z,66.05
2022-09-30T16:01:40.079Z,66.02
2022-09-30T16:06:42.251Z,66.25
2022-09-30T16:11:46.893Z,66.48
2022-09-30T16:16:54.731Z,66.86
2022-09-30T16:21:58.033Z,66.74
2022-09-30T16:27:20.156Z,66.77
2022-09-30T16:32:22.867Z,66.80
2022-09-30T16:37:24.803Z,66.59
2022-09-30T16:42:27.346Z,66.66
2022-09-30T16:47:29.158Z,66.92
2022-09-30T16:52:31.468Z,67.06
2022-09-30T16:57:33.466Z,66.99
2022-09-30T17:02:35.370Z,67.33
2022-09-30T17:07:37.204Z,67.29
2022-09-30T17:12:39.066Z,67.56
2022-09-30T17:17:40.932Z,67.62
2022-09-30T17:22:43.222Z,67.59
2022-09-30T17:27:50.071Z,67.66
2022-09-30T17:32:53.041Z,67.58
2022-09-30T17:37:56.364Z,67.76
2022-09-30T17:43:07.370Z,67.73
2022-09-30T17:48:10.805Z,67.67
2022-09-30T17:53:16.956Z,67.79
2022-09-30T17:58:19.361Z,67.70
2022-09-30T18:03:21.787Z,67.90
2022-09-30T18:08:25.136Z,68.14
2022-09-30T18:13:27.872Z,67.97
2022-09-30T18:18:29.862Z,67.95
2022-09-30T18:23:31.631Z,67.97
2022-09-30T18:28:33.558Z,68.08
2022-09-30T18:33:35.819Z,68.20
2022-09-30T18:38:37.669Z,68.30
2022-09-30T18:43:40.062Z,68.18
2022-09-30T18:48:41.910Z,68.24
2022-09-30T18:53:44.844Z,68.27
2022-09-30T18:58:49.145Z,68.29
2022-09-30T19:03:52.684Z,68.15
2022-09-30T19:08:54.442Z,67.92
2022-09-30T19:14:02.499Z,67.92
2022-09-30T19:19:10.478Z,67.57
2022-09-30T19:24:12.523Z,67.38
2022-09-30T19:29:14.304Z,67.20
2022-09-30T19:34:27.102Z,67.21
2022-09-30T19:39:42.475Z,67.08
2022-09-30T19:44:47.487Z,66.96
2022-09-30T19:49:49.352Z,66.97
2022-09-30T19:54:51.911Z,66.86
2022-09-30T19:59:53.945Z,66.77
2022-09-30T20:04:55.841Z,66.71
2022-09-30T20:09:57.743Z,66.80
2022-09-30T20:15:17.966Z,66.75
2022-09-30T20:20:34.793Z,66.71
2022-09-30T20:25:36.650Z,66.68
2022-09-30T20:30:45.650Z,66.67
2022-09-30T20:35:48.278Z,66.68
2022-09-30T20:40:57.374Z,66.58
2022-09-30T20:46:01.836Z,66.54
2022-09-30T20:51:08.523Z,66.64
2022-09-30T20:56:12.970Z,66.63
2022-09-30T21:01:20.126Z,66.54
2022-09-30T21:06:25.833Z,66.62
2022-09-30T21:11:27.608Z,66.59
2022-09-30T21:16:29.798Z,66.55
2022-09-30T21:21:32.115Z,66.65
2022-09-30T21:26:35.702Z,66.50
2022-09-30T21:31:38.096Z,66.50
2022-09-30T21:36:40.582Z,66.52
2022-09-30T21:41:43.056Z,66.54
2022-09-30T21:46:48.877Z,66.62
2022-09-30T21:51:53.708Z,66.65
2022-09-30T21:56:55.465Z,66.59
2022-09-30T22:01:57.388Z,66.75
2022-09-30T22:06:59.266Z,66.73
2022-09-30T22:12:08.742Z,66.63
2022-09-30T22:17:10.550Z,66.68
2022-09-30T22:22:12.383Z,66.79
2022-09-30T22:27:14.744Z,66.70
2022-09-30T22:32:16.754Z,66.79
2022-09-30T22:37:36.844Z,67.03
2022-09-30T22:42:38.784Z,66.83
2022-09-30T22:47:41.603Z,66.81
2022-09-30T22:52:43.426Z,66.92
2022-09-30T22:57:45.191Z,66.85
2022-09-30T23:02:46.909Z,66.88
2022-09-30T23:07:48.609Z,67.01
2022-09-30T23:12:52.206Z,67.00
2022-09-30T23:17:53.982Z,67.07
2022-09-30T23:22:55.932Z,67.04
2022-09-30T23:27:57.769Z,67.02
2022-09-30T23:32:59.539Z,67.13
2022-09-30T23:38:01.330Z,67.14
2022-09-30T23:43:03.060Z,67.21
2022-09-30T23:48:04.831Z,67.30
2022-09-30T23:53:06.633Z,67.23
2022-09-30T23:58:08.802Z,67.38
